Puysegur Point, New Zealand
Current Conditions -  °F | °C
As of 10:00 AM on Saturday 01 Nov 2014 (Local Time) from NZCH Reporting Station
Clear Clear  
Wind Chill: 64°   Ceiling: Unl
Heat Index: 64°   Visibility: 6mi
Dew Point: 39°   Wind: 10mph
Humidity: 40%   Direction: 70°ENE
Pressure: 29.83"   Gusts: NA
Location:  46.16°S, 166.59°E
Report Text: NZCH 312200Z AUTO 07009KT 9999 NCD 18/04 Q1010 NOSIG
Loading
Personal Weather Stations






























Interactive Weather Map
Tropical Storm Tracking
New forecast layout! Learn more

10-Day Weather Forecast

Advertisements
Track Severe Weather on mobile